Time;durP1;ratioP1;P1;durP2;ratioP2;P2;SDS_P1;SDS_P2;PMS_P1;PMS_P2;Temp;Humidity;BMP_temperature;BMP_pressure;BME280_temperature;BME280_humidity;BME280_pressure;Samples;Min_cycle;Max_cycle;Signal;HPM_P1;HPM_P2
2024/01/08 00:00:39;;;;;;;1.63;0.60;;;;;;;16.07;60.20;97359.97;6157201;23;20154;-86
2024/01/08 00:03:04;;;;;;;1.17;0.40;;;;;;;16.01;60.55;97357.94;6130731;23;20258;-86
2024/01/08 00:05:30;;;;;;;2.73;0.77;;;;;;;16.08;59.99;97359.00;6156820;23;20147;-86
2024/01/08 00:07:55;;;;;;;1.70;0.77;;;;;;;16.16;59.87;97366.97;6156782;23;20150;-86
2024/01/08 00:10:21;;;;;;;2.90;0.90;;;;;;;16.07;59.68;97364.41;6156500;23;20151;-87
2024/01/08 00:12:46;;;;;;;2.10;0.90;;;;;;;15.84;60.31;97369.41;6156472;23;20533;-87
2024/01/08 00:15:12;;;;;;;1.03;0.47;;;;;;;15.89;60.41;97386.47;6156116;23;20155;-87
2024/01/08 00:17:37;;;;;;;0.90;0.50;;;;;;;16.00;60.28;97382.72;6157047;23;20149;-87
2024/01/08 00:20:03;;;;;;;4.03;0.80;;;;;;;15.97;59.72;97378.59;6156166;23;20237;-86
2024/01/08 00:22:28;;;;;;;1.27;0.40;;;;;;;15.57;60.93;97380.97;6155154;23;20634;-86
2024/01/08 00:24:54;;;;;;;0.70;0.40;;;;;;;15.62;61.36;97378.69;6156219;23;20277;-86
2024/01/08 00:27:19;;;;;;;1.60;0.63;;;;;;;15.63;60.86;97392.72;6156277;23;20225;-86
2024/01/08 00:29:45;;;;;;;3.23;1.03;;;;;;;15.61;61.16;97394.69;6130605;23;20226;-86
2024/01/08 00:32:10;;;;;;;1.00;0.70;;;;;;;15.71;61.05;97392.78;6154956;23;20642;-86
2024/01/08 00:34:36;;;;;;;2.60;0.30;;;;;;;15.63;61.08;97396.19;6156226;23;20159;-86
2024/01/08 00:37:02;;;;;;;2.23;0.40;;;;;;;15.71;60.86;97392.78;6156159;23;20187;-87
2024/01/08 00:39:28;;;;;;;0.30;0.23;;;;;;;15.61;61.14;97394.69;6156517;23;20147;-86
2024/01/08 00:41:53;;;;;;;0.47;0.30;;;;;;;15.57;61.06;97391.53;6129980;23;20179;-87
2024/01/08 00:44:19;;;;;;;0.60;0.33;;;;;;;15.56;61.38;97405.72;6156108;23;20159;-86
2024/01/08 00:46:44;;;;;;;1.03;0.30;;;;;;;15.61;61.47;97400.81;6130275;23;20590;-86
2024/01/08 00:49:10;;;;;;;0.83;0.30;;;;;;;15.76;61.24;97401.06;6156498;23;20146;-86
2024/01/08 00:51:35;;;;;;;0.70;0.47;;;;;;;15.88;60.89;97405.09;6156396;23;20152;-86
2024/01/08 00:54:01;;;;;;;1.30;0.63;;;;;;;15.95;60.28;97408.81;6156162;23;20237;-86
2024/01/08 00:56:26;;;;;;;0.50;0.27;;;;;;;15.99;59.75;97418.91;6156727;23;20161;-87
2024/01/08 00:58:52;;;;;;;0.50;0.30;;;;;;;16.03;59.16;97408.84;6156040;23;20151;-86
2024/01/08 01:01:17;;;;;;;5.03;0.53;;;;;;;16.10;58.75;97415.16;6155803;23;20154;-86
2024/01/08 01:03:43;;;;;;;0.77;0.30;;;;;;;16.06;58.64;97408.53;6156170;23;20228;-86
2024/01/08 01:06:08;;;;;;;1.03;0.33;;;;;;;16.01;58.41;97399.41;6155600;23;20582;-86
2024/01/08 01:08:34;;;;;;;1.67;0.57;;;;;;;15.96;58.17;97407.78;6155929;23;20577;-86
2024/01/08 01:10:59;;;;;;;3.87;1.20;;;;;;;15.86;58.71;97405.25;6155941;23;20182;-86
2024/01/08 01:13:25;;;;;;;8.27;2.07;;;;;;;15.71;59.94;97419.19;6156282;23;20511;-86
2024/01/08 01:15:51;;;;;;;23.07;9.03;;;;;;;15.29;61.94;97417.19;6155761;23;20155;-85
2024/01/08 01:18:16;;;;;;;9.23;4.10;;;;;;;15.12;63.18;97418.00;6155800;23;20192;-86
2024/01/08 01:20:42;;;;;;;12.10;3.10;;;;;;;14.93;64.36;97423.44;6155770;23;20214;-86
2024/01/08 01:23:07;;;;;;;24.43;3.90;;;;;;;14.88;64.96;97427.50;6130031;23;20630;-85
2024/01/08 01:25:33;;;;;;;11.10;3.03;;;;;;;14.92;64.94;97431.47;6155755;23;20152;-86
2024/01/08 01:27:58;;;;;;;9.70;3.73;;;;;;;14.74;65.80;97434.09;6155710;23;20157;-85
2024/01/08 01:30:24;;;;;;;10.73;3.63;;;;;;;14.76;65.77;97440.88;6156056;23;20154;-85
2024/01/08 01:32:49;;;;;;;10.40;4.40;;;;;;;14.66;66.26;97434.00;6155476;23;20150;-85
2024/01/08 01:35:15;;;;;;;14.60;4.57;;;;;;;14.70;66.38;97430.91;6156025;23;20154;-85
2024/01/08 01:37:42;;;;;;;14.53;3.67;;;;;;;14.70;66.57;97438.03;6155898;23;20204;-85
2024/01/08 01:40:08;;;;;;;16.70;4.50;;;;;;;14.68;66.83;97447.88;6156024;23;20240;-85
2024/01/08 01:42:34;;;;;;;11.43;4.27;;;;;;;14.53;67.99;97446.69;6155879;23;20554;-85
2024/01/08 01:44:59;;;;;;;16.40;4.97;;;;;;;14.44;68.43;97445.75;6155914;23;20237;-85
2024/01/08 01:47:25;;;;;;;14.20;5.37;;;;;;;14.24;69.71;97451.22;6155584;23;20175;-85
2024/01/08 01:49:53;;;;;;;10.83;4.73;;;;;;;14.26;69.91;97452.75;6155886;23;20641;-85
2024/01/08 01:52:20;;;;;;;14.93;5.53;;;;;;;14.18;70.51;97456.09;6154436;23;20163;-85
2024/01/08 01:54:48;;;;;;;12.70;4.80;;;;;;;14.24;70.51;97459.13;6155219;23;20497;-85
2024/01/08 01:57:15;;;;;;;12.80;4.80;;;;;;;14.34;70.36;97455.50;6155420;23;20152;-85
2024/01/08 01:59:41;;;;;;;11.07;5.03;;;;;;;14.21;70.92;97462.03;6155372;23;20172;-85
2024/01/08 02:02:07;;;;;;;11.03;5.30;;;;;;;14.20;71.35;97466.50;6155444;23;20264;-85
2024/01/08 02:04:32;;;;;;;19.13;5.47;;;;;;;14.26;71.32;97462.44;6155782;23;20233;-85
2024/01/08 02:07:00;;;;;;;11.63;4.80;;;;;;;14.23;71.57;97462.75;6129593;23;20155;-85
2024/01/08 02:09:27;;;;;;;9.93;4.07;;;;;;;14.25;71.30;97468.72;6155492;23;20231;-86
2024/01/08 02:11:52;;;;;;;10.47;4.40;;;;;;;14.14;71.86;97462.66;6155587;23;20163;-85
2024/01/08 02:14:18;;;;;;;12.63;5.37;;;;;;;14.17;72.01;97461.53;6155476;23;20149;-85
2024/01/08 02:16:43;;;;;;;13.63;6.13;;;;;;;14.11;72.80;97455.03;6155752;23;20167;-86
2024/01/08 02:19:10;;;;;;;13.57;6.07;;;;;;;14.11;72.78;97457.66;6157025;23;20172;-85
2024/01/08 02:21:36;;;;;;;19.17;6.00;;;;;;;14.16;72.63;97460.69;6157280;23;20193;-85
2024/01/08 02:24:02;;;;;;;19.30;6.33;;;;;;;14.26;72.36;97457.16;6157470;23;20235;-85
2024/01/08 02:26:28;;;;;;;13.37;5.43;;;;;;;14.30;72.08;97464.66;6157946;23;20160;-86
2024/01/08 02:28:53;;;;;;;11.93;5.73;;;;;;;14.17;72.82;97461.53;6157587;23;20171;-86
2024/01/08 02:31:19;;;;;;;22.07;5.07;;;;;;;14.08;73.04;97457.09;6157186;23;20165;-85
2024/01/08 02:33:45;;;;;;;13.70;5.23;;;;;;;14.13;73.17;97462.78;6157237;23;20180;-86
2024/01/08 02:36:10;;;;;;;12.07;4.47;;;;;;;14.32;72.00;97464.53;6157172;23;20158;-85
2024/01/08 02:38:36;;;;;;;11.87;4.90;;;;;;;14.36;71.99;97460.66;6157187;23;20580;-86
2024/01/08 02:41:01;;;;;;;10.10;4.43;;;;;;;14.28;72.34;97460.53;6157344;23;20475;-86
2024/01/08 02:43:27;;;;;;;18.93;5.07;;;;;;;14.33;72.16;97474.13;6157427;23;20511;-85
2024/01/08 02:45:52;;;;;;;12.30;4.70;;;;;;;14.48;71.40;97470.03;6157030;23;20596;-85
2024/01/08 02:48:18;;;;;;;9.30;4.53;;;;;;;14.52;71.13;97472.22;6157153;23;20151;-85
2024/01/08 02:50:43;;;;;;;11.57;4.87;;;;;;;14.53;71.21;97473.91;6131393;23;20193;-85
2024/01/08 02:53:09;;;;;;;10.53;3.77;;;;;;;14.32;72.34;97481.19;6157411;23;20444;-86
2024/01/08 02:55:34;;;;;;;12.80;4.73;;;;;;;14.40;72.18;97480.47;6157209;23;20147;-85
2024/01/08 02:58:04;;;;;;;16.93;4.53;;;;;;;14.50;71.96;97482.09;6157747;23;20147;-85
2024/01/08 03:00:29;;;;;;;11.67;4.33;;;;;;;14.57;71.82;97491.06;6156831;23;20152;-85
2024/01/08 03:02:55;;;;;;;6.57;3.30;;;;;;;14.66;71.34;97484.09;6156873;23;20258;-85
2024/01/08 03:05:20;;;;;;;7.23;3.73;;;;;;;14.72;71.10;97489.63;6157251;23;20477;-85
2024/01/08 03:07:46;;;;;;;12.10;4.20;;;;;;;14.74;70.72;97497.38;6156762;23;20161;-85
2024/01/08 03:10:11;;;;;;;13.60;4.23;;;;;;;14.75;70.55;97488.53;6157022;23;20171;-85
2024/01/08 03:12:37;;;;;;;11.00;4.20;;;;;;;14.81;70.12;97493.19;6156945;23;20147;-85
2024/01/08 03:15:03;;;;;;;10.67;4.10;;;;;;;14.80;69.95;97486.28;6131138;23;20156;-85
2024/01/08 03:17:29;;;;;;;13.40;3.70;;;;;;;14.71;70.59;97502.97;6156759;23;20181;-85
2024/01/08 03:19:54;;;;;;;12.97;3.23;;;;;;;14.70;70.63;97496.03;6156788;23;20163;-85
2024/01/08 03:22:20;;;;;;;18.00;4.23;;;;;;;14.73;70.39;97493.91;6157112;23;20187;-85
2024/01/08 03:24:45;;;;;;;13.10;4.67;;;;;;;14.72;70.16;97502.00;6157137;23;20226;-85
2024/01/08 03:27:11;;;;;;;10.87;3.53;;;;;;;14.67;70.71;97496.31;6156810;23;20214;-85
2024/01/08 03:29:37;;;;;;;6.40;3.10;;;;;;;14.75;70.26;97502.50;6156656;23;20496;-85
2024/01/08 03:32:03;;;;;;;5.57;3.27;;;;;;;14.77;70.19;97500.59;6157032;23;20447;-85
2024/01/08 03:34:28;;;;;;;11.23;3.53;;;;;;;14.78;70.15;97498.75;6157069;23;20236;-86
2024/01/08 03:36:54;;;;;;;9.73;3.20;;;;;;;14.60;71.32;97497.84;6156754;23;20186;-86
2024/01/08 03:39:19;;;;;;;7.87;2.50;;;;;;;14.48;72.04;97504.31;6156527;23;20155;-86
2024/01/08 03:41:45;;;;;;;10.80;3.43;;;;;;;14.50;72.02;97499.72;6156659;23;20179;-86
2024/01/08 03:44:10;;;;;;;10.90;3.50;;;;;;;14.33;72.42;97498.69;6156986;23;20151;-86
2024/01/08 03:46:37;;;;;;;6.93;3.50;;;;;;;14.26;72.78;97496.69;6156521;23;20242;-85
2024/01/08 03:49:03;;;;;;;9.17;4.43;;;;;;;14.27;72.99;97506.28;6156963;23;20165;-85
2024/01/08 03:51:30;;;;;;;10.63;4.10;;;;;;;14.24;72.81;97503.94;6156567;23;20147;-85
2024/01/08 03:53:56;;;;;;;11.90;4.00;;;;;;;14.28;72.85;97521.13;6155133;23;20166;-85
2024/01/08 03:56:21;;;;;;;16.37;4.57;;;;;;;14.20;73.42;97518.38;6156387;23;20177;-86
2024/01/08 03:58:47;;;;;;;11.87;5.47;;;;;;;14.27;73.39;97514.19;6156803;23;20210;-86
2024/01/08 04:01:12;;;;;;;12.60;4.67;;;;;;;14.39;73.12;97527.06;6156396;23;20590;-86
2024/01/08 04:03:38;;;;;;;9.87;4.40;;;;;;;14.42;72.53;97533.88;6156698;23;20179;-86
2024/01/08 04:06:04;;;;;;;10.63;5.03;;;;;;;14.37;72.66;97541.38;6156749;23;20155;-86
2024/01/08 04:08:29;;;;;;;10.07;4.40;;;;;;;14.42;72.93;97536.50;6156464;23;20155;-85
2024/01/08 04:10:54;;;;;;;9.87;3.90;;;;;;;14.40;72.43;97541.94;6156730;23;20158;-86
2024/01/08 04:13:20;;;;;;;9.47;4.03;;;;;;;14.49;72.30;97540.25;6156319;23;20143;-86
2024/01/08 04:15:45;;;;;;;14.07;5.20;;;;;;;14.41;72.36;97535.66;6156162;23;20151;-86
2024/01/08 04:18:12;;;;;;;11.33;5.00;;;;;;;14.33;72.75;97540.84;6156100;23;20161;-85
2024/01/08 04:20:38;;;;;;;9.23;4.20;;;;;;;14.24;72.94;97551.34;6156732;23;20134;-85
2024/01/08 04:23:04;;;;;;;9.43;5.07;;;;;;;14.29;73.02;97555.25;6156087;23;20506;-86
2024/01/08 04:25:29;;;;;;;11.93;5.83;;;;;;;14.34;72.95;97549.56;6130702;23;20169;-85
2024/01/08 04:27:55;;;;;;;13.33;5.67;;;;;;;14.33;72.85;97555.81;6156575;23;20151;-85
2024/01/08 04:30:20;;;;;;;11.13;5.33;;;;;;;14.28;72.75;97558.84;6156224;23;20234;-85
2024/01/08 04:32:46;;;;;;;18.27;7.20;;;;;;;14.23;73.22;97563.69;6156160;23;20179;-85
2024/01/08 04:35:11;;;;;;;10.80;6.47;;;;;;;14.21;73.17;97572.72;6156195;23;20521;-85
2024/01/08 04:37:37;;;;;;;16.53;9.20;;;;;;;14.22;73.03;97577.88;6155934;23;20151;-85
2024/01/08 04:40:03;;;;;;;11.97;6.60;;;;;;;14.22;72.90;97579.66;6155987;23;20539;-85
2024/01/08 04:42:28;;;;;;;7.33;4.60;;;;;;;14.02;73.52;97579.69;6130317;23;20281;-85
2024/01/08 04:44:53;;;;;;;7.20;3.77;;;;;;;14.08;73.85;97592.31;6154790;23;20165;-85
2024/01/08 04:47:19;;;;;;;6.83;4.37;;;;;;;14.05;73.73;97599.63;6156461;23;20233;-85
2024/01/08 04:49:44;;;;;;;9.27;3.87;;;;;;;14.02;74.03;97606.03;6155993;23;20217;-85
2024/01/08 04:52:10;;;;;;;8.80;4.60;;;;;;;13.95;74.57;97609.34;6156056;23;20571;-86
2024/01/08 04:54:35;;;;;;;10.70;4.60;;;;;;;13.78;75.33;97608.25;6154658;23;20171;-85
2024/01/08 04:57:01;;;;;;;8.43;4.40;;;;;;;13.74;76.13;97616.53;6156647;23;20233;-86
2024/01/08 04:59:26;;;;;;;8.03;3.90;;;;;;;13.66;77.12;97611.13;6156043;23;20158;-85
2024/01/08 05:01:52;;;;;;;8.97;4.90;;;;;;;13.70;77.18;97616.00;6155901;23;20182;-85
2024/01/08 05:04:17;;;;;;;9.40;4.00;;;;;;;13.71;76.88;97616.81;6156003;23;20165;-85
2024/01/08 05:06:47;;;;;;;8.23;3.60;;;;;;;13.66;77.27;97621.66;6155884;23;20506;-85
2024/01/08 05:09:13;;;;;;;8.10;4.23;;;;;;;13.54;77.96;97639.38;6156312;23;20178;-85
2024/01/08 05:11:39;;;;;;;12.27;4.83;;;;;;;13.69;77.81;97642.44;6155898;23;20521;-86
2024/01/08 05:14:05;;;;;;;9.87;5.40;;;;;;;13.69;77.86;97640.66;6156606;23;20147;-85
2024/01/08 05:16:30;;;;;;;8.13;4.30;;;;;;;13.54;78.11;97648.13;6155887;23;20570;-85
2024/01/08 05:18:56;;;;;;;12.50;5.03;;;;;;;13.63;77.75;97638.56;6155692;23;20547;-85
2024/01/08 05:21:22;;;;;;;13.40;4.73;;;;;;;13.72;77.60;97639.56;6155824;23;20236;-85
2024/01/08 05:23:47;;;;;;;8.97;5.03;;;;;;;13.74;77.41;97651.59;6155757;23;20575;-85
2024/01/08 05:26:13;;;;;;;10.23;5.37;;;;;;;13.83;76.96;97663.97;6155952;23;20171;-86
2024/01/08 05:28:38;;;;;;;9.97;4.97;;;;;;;13.90;77.25;97664.25;6156181;23;20210;-85
2024/01/08 05:31:04;;;;;;;14.20;5.77;;;;;;;13.91;76.94;97677.28;6155837;23;20158;-85
2024/01/08 05:33:29;;;;;;;11.80;6.63;;;;;;;13.93;77.22;97677.97;6155763;23;20162;-85
2024/01/08 05:35:55;;;;;;;12.00;5.67;;;;;;;14.02;76.58;97682.41;6156134;23;20151;-86
2024/01/08 05:38:21;;;;;;;16.13;6.03;;;;;;;14.05;76.60;97695.31;6156120;23;20249;-86
2024/01/08 05:40:46;;;;;;;10.47;4.77;;;;;;;14.00;76.83;97691.41;6156061;23;20560;-85
2024/01/08 05:43:13;;;;;;;9.00;4.57;;;;;;;13.70;77.63;97695.00;6155845;23;20572;-86
2024/01/08 05:45:39;;;;;;;9.57;3.57;;;;;;;13.54;78.17;97706.03;6156087;23;20154;-86
2024/01/08 05:48:05;;;;;;;5.07;2.57;;;;;;;13.39;78.42;97707.34;6154807;23;20634;-87
2024/01/08 05:50:30;;;;;;;8.73;3.00;;;;;;;13.41;78.74;97705.44;6154487;23;20160;-87
2024/01/08 05:52:56;;;;;;;6.87;2.90;;;;;;;13.47;78.06;97715.41;6157144;23;20458;-88
2024/01/08 05:55:23;;;;;;;7.83;3.00;;;;;;;13.45;78.34;97722.63;6157620;23;20222;-87
2024/01/08 05:57:49;;;;;;;6.63;2.43;;;;;;;13.53;78.40;97724.56;6158118;23;20175;-87
2024/01/08 06:00:17;;;;;;;4.93;1.80;;;;;;;13.46;78.19;97726.09;6156408;23;20159;-88
2024/01/08 06:02:43;;;;;;;4.83;2.10;;;;;;;13.46;78.20;97740.09;6157902;23;20602;-88
2024/01/08 06:05:16;;;;;;;3.47;1.57;;;;;;;13.45;78.12;97737.56;6157676;23;20151;-88
2024/01/08 06:07:42;;;;;;;4.03;2.00;;;;;;;13.53;77.88;97735.09;6158427;23;20572;-88
2024/01/08 06:10:08;;;;;;;3.83;1.83;;;;;;;13.65;77.41;97749.03;6157692;23;20151;-88
2024/01/08 06:12:33;;;;;;;2.90;1.47;;;;;;;13.62;77.11;97738.75;6157478;23;20150;-89
2024/01/08 06:14:59;;;;;;;4.43;1.63;;;;;;;13.65;76.77;97749.03;6132627;23;20167;-89
2024/01/08 06:20:46;;;;;;;8.47;1.23;;;;;;;13.94;74.31;97750.75;6137092;23;20155;-89
2024/01/08 06:23:14;;;;;;;1.73;0.83;;;;;;;13.90;74.32;97759.91;6133111;23;20269;-89
2024/01/08 06:26:02;;;;;;;;;;;;;;;;;;;;;
2024/01/08 06:28:33;;;;;;;2.93;1.30;;;;;;;13.83;74.72;97757.94;6158120;23;20214;-90
2024/01/08 06:31:14;;;;;;;;;;;;;;;;;;;;;
2024/01/08 06:34:02;;;;;;;2.23;1.27;;;;;;;14.09;73.47;97765.22;6158249;23;20207;-90
2024/01/08 06:36:32;;;;;;;4.47;1.27;;;;;;;14.08;73.12;97773.25;6131828;23;20647;-89
2024/01/08 06:38:57;;;;;;;3.47;1.43;;;;;;;14.05;73.22;97774.34;6156744;23;20171;-90
2024/01/08 06:41:23;;;;;;;4.43;1.20;;;;;;;14.06;73.13;97778.66;6131586;23;20156;-89
2024/01/08 06:43:48;;;;;;;2.97;1.50;;;;;;;14.12;73.00;97782.56;6157713;23;20180;-89
2024/01/08 06:46:14;;;;;;;2.10;1.07;;;;;;;14.14;72.87;97792.00;6157764;23;20566;-89
2024/01/08 06:48:39;;;;;;;3.87;1.10;;;;;;;14.15;72.58;97801.56;6157304;23;20155;-89
2024/01/08 06:51:05;;;;;;;4.03;2.10;;;;;;;14.09;72.64;97796.00;6158119;23;20447;-89
2024/01/08 06:53:30;;;;;;;3.13;1.50;;;;;;;14.12;72.69;97804.44;6131667;23;20476;-89
2024/01/08 06:55:56;;;;;;;3.03;1.27;;;;;;;14.08;72.76;97810.13;6131452;23;20162;-89
2024/01/08 06:58:21;;;;;;;3.93;1.57;;;;;;;14.09;72.88;97804.75;6157169;23;20497;-89
2024/01/08 07:00:50;;;;;;;2.77;1.20;;;;;;;14.11;72.77;97810.72;6156969;23;20516;-89
2024/01/08 07:03:16;;;;;;;2.70;1.50;;;;;;;14.19;72.83;97815.31;6156875;23;20203;-89
2024/01/08 07:05:41;;;;;;;1.83;1.00;;;;;;;14.25;72.64;97817.41;6131467;23;20155;-89
2024/01/08 07:08:07;;;;;;;2.63;0.93;;;;;;;14.34;72.60;97821.03;6157328;23;20179;-90
2024/01/08 07:10:34;;;;;;;2.10;0.83;;;;;;;14.37;72.29;97831.31;6157136;23;20148;-90
2024/01/08 07:13:00;;;;;;;1.47;0.73;;;;;;;14.42;71.86;97834.38;6156173;23;20182;-90
2024/01/08 07:15:46;;;;;;;2.80;0.60;;;;;;;14.38;71.97;97838.25;6157054;23;20211;-89
2024/01/08 07:18:13;;;;;;;0.50;0.33;;;;;;;14.34;71.70;97842.13;6157515;23;20150;-89
2024/01/08 07:20:39;;;;;;;0.57;0.33;;;;;;;14.26;71.83;97852.47;6131500;23;20151;-90
2024/01/08 07:23:10;;;;;;;2.10;0.67;;;;;;;14.27;71.77;97857.63;6155759;23;20179;-89
2024/01/08 07:25:39;;;;;;;1.13;0.40;;;;;;;14.36;71.80;97861.31;6157086;23;20580;-89
2024/01/08 07:28:11;;;;;;;2.60;0.60;;;;;;;14.38;71.81;97864.63;6157043;23;20148;-89
2024/01/08 07:30:38;;;;;;;1.60;0.57;;;;;;;14.44;71.53;97869.38;6157529;23;20155;-89
2024/01/08 07:33:04;;;;;;;1.33;0.53;;;;;;;14.47;71.39;97869.06;6155688;23;20157;-89
2024/01/08 07:35:29;;;;;;;1.57;0.80;;;;;;;14.47;71.42;97879.63;6156879;23;20270;-89
2024/01/08 07:37:55;;;;;;;1.40;0.70;;;;;;;14.50;71.55;97882.00;6156949;23;20147;-89
2024/01/08 07:40:25;;;;;;;4.43;1.60;;;;;;;14.51;71.58;97881.03;6156717;23;20165;-89
2024/01/08 07:42:55;;;;;;;4.00;1.03;;;;;;;14.53;71.43;97892.28;6157049;23;20598;-90
2024/01/08 07:45:22;;;;;;;4.47;1.50;;;;;;;14.55;71.21;97896.44;6156861;23;20266;-89
2024/01/08 07:47:48;;;;;;;3.33;1.90;;;;;;;14.53;71.42;97894.91;6156734;23;20175;-89
2024/01/08 07:50:14;;;;;;;4.27;1.90;;;;;;;14.60;71.43;97901.28;6156970;23;20464;-90
2024/01/08 07:52:40;;;;;;;7.10;1.73;;;;;;;14.63;71.23;97903.66;6131474;23;20155;-90
2024/01/08 07:55:06;;;;;;;5.33;1.90;;;;;;;14.63;71.40;97908.94;6155498;23;20155;-90
2024/01/08 07:57:31;;;;;;;1.70;1.00;;;;;;;14.62;71.18;97910.75;6157367;23;20522;-90
2024/01/08 08:00:00;;;;;;;8.63;1.57;;;;;;;14.63;70.99;97916.84;6156849;23;20522;-90
2024/01/08 08:02:25;;;;;;;2.87;1.20;;;;;;;14.65;70.93;97920.19;6155913;23;20257;-90
2024/01/08 08:04:53;;;;;;;4.00;1.27;;;;;;;14.69;70.62;97921.59;6155548;23;20249;-90
2024/01/08 08:07:19;;;;;;;5.83;1.97;;;;;;;14.73;70.61;97921.19;6155520;23;20157;-90
2024/01/08 08:09:45;;;;;;;3.53;1.70;;;;;;;14.77;70.49;97930.50;6155340;23;20588;-90
2024/01/08 08:12:10;;;;;;;5.17;1.90;;;;;;;14.82;70.58;97935.38;6155519;23;20170;-89
2024/01/08 08:14:36;;;;;;;3.33;1.40;;;;;;;14.81;70.44;97938.13;6130635;23;20191;-90
2024/01/08 08:17:03;;;;;;;3.70;1.30;;;;;;;14.81;70.45;97946.03;6156583;23;20643;-89
2024/01/08 08:19:28;;;;;;;2.40;0.80;;;;;;;14.82;70.95;97942.44;6155714;23;20191;-89
2024/01/08 08:21:54;;;;;;;5.63;1.33;;;;;;;14.81;71.01;97953.94;6130804;23;20392;-89
2024/01/08 08:24:19;;;;;;;2.10;0.87;;;;;;;14.80;71.10;97954.94;6156929;23;20160;-90
2024/01/08 08:26:45;;;;;;;1.40;0.50;;;;;;;14.72;71.33;97964.38;6155332;23;20307;-89
2024/01/08 08:29:10;;;;;;;1.20;0.40;;;;;;;14.73;71.38;97962.53;6130843;23;20163;-90
2024/01/08 08:31:36;;;;;;;0.77;0.30;;;;;;;14.74;71.24;97961.59;6157177;23;20185;-89
2024/01/08 08:34:02;;;;;;;1.10;0.40;;;;;;;14.74;71.30;97964.22;6156555;23;20148;-89
2024/01/08 08:36:27;;;;;;;1.17;0.50;;;;;;;14.77;71.13;97977.16;6130563;23;20197;-89
2024/01/08 08:38:53;;;;;;;2.67;1.00;;;;;;;14.70;71.04;97983.94;6130593;23;20485;-90
2024/01/08 08:41:19;;;;;;;2.37;0.73;;;;;;;14.38;70.34;97991.16;6156677;23;20153;-89
2024/01/08 08:43:48;;;;;;;0.83;0.30;;;;;;;13.75;71.83;97992.16;6130717;23;20197;-90
2024/01/08 08:46:15;;;;;;;1.03;0.37;;;;;;;13.82;71.96;97994.13;6155085;23;20166;-90
2024/01/08 08:48:41;;;;;;;1.53;0.57;;;;;;;13.94;71.75;97987.03;6130753;23;20165;-90
2024/01/08 08:51:07;;;;;;;1.77;0.80;;;;;;;13.97;72.10;98003.38;6131624;23;20187;-90
2024/01/08 08:53:32;;;;;;;1.50;0.43;;;;;;;14.03;72.69;98008.13;6156714;23;20482;-90
2024/01/08 08:55:58;;;;;;;2.73;0.60;;;;;;;13.98;72.51;98010.31;6155171;23;20255;-90
2024/01/08 08:58:23;;;;;;;0.87;0.50;;;;;;;13.90;72.59;98007.50;6130615;23;20162;-90
2024/01/08 09:00:49;;;;;;;1.03;0.50;;;;;;;13.87;73.04;98010.38;6155054;23;20579;-90
2024/01/08 09:03:15;;;;;;;1.13;0.40;;;;;;;13.81;72.89;98021.41;6130879;23;20606;-89
2024/01/08 09:05:41;;;;;;;0.43;0.30;;;;;;;13.63;74.05;98022.09;6156019;23;20226;-90
2024/01/08 09:08:06;;;;;;;0.47;0.20;;;;;;;13.58;74.19;98022.50;6130637;23;20159;-91
2024/01/08 09:10:33;;;;;;;0.63;0.30;;;;;;;13.44;74.46;98025.44;6130573;23;20567;-90
2024/01/08 09:12:58;;;;;;;0.60;0.30;;;;;;;13.41;74.91;98021.28;6155071;23;20221;-91
2024/01/08 09:15:24;;;;;;;0.50;0.30;;;;;;;13.50;74.60;98020.50;6155162;23;20159;-90
2024/01/08 09:17:49;;;;;;;0.63;0.20;;;;;;;13.66;74.05;98037.66;6156213;23;20154;-90
2024/01/08 09:20:15;;;;;;;0.37;0.20;;;;;;;13.74;73.91;98036.06;6130464;23;20276;-90
2024/01/08 09:22:41;;;;;;;0.33;0.20;;;;;;;13.89;73.61;98024.25;6130204;23;20198;-90
2024/01/08 09:25:07;;;;;;;0.60;0.40;;;;;;;13.84;73.65;98022.97;6156087;23;20151;-90
2024/01/08 09:27:32;;;;;;;0.37;0.20;;;;;;;13.82;73.93;98027.53;6129984;23;20155;-90
2024/01/08 09:29:58;;;;;;;0.50;0.20;;;;;;;13.93;73.40;98030.13;6130178;23;20151;-91
2024/01/08 09:32:24;;;;;;;0.40;0.27;;;;;;;14.01;73.09;98030.31;6130519;23;20163;-90
2024/01/08 09:34:51;;;;;;;0.30;0.30;;;;;;;14.14;72.99;98037.06;6156420;23;20166;-91
2024/01/08 09:37:16;;;;;;;1.30;0.40;;;;;;;14.16;72.81;98029.84;6156100;23;20571;-90
2024/01/08 09:39:42;;;;;;;4.00;0.50;;;;;;;14.03;73.06;98033.66;6130286;23;20217;-90
2024/01/08 09:42:09;;;;;;;0.83;0.37;;;;;;;14.01;72.98;98033.78;6130301;23;20275;-91
2024/01/08 09:44:37;;;;;;;1.57;0.50;;;;;;;14.08;72.95;98037.56;6155871;23;20156;-90
2024/01/08 09:47:04;;;;;;;2.67;0.70;;;;;;;13.99;71.80;98042.78;6130726;23;20575;-91
2024/01/08 09:49:32;;;;;;;1.40;0.40;;;;;;;13.66;72.11;98041.13;6130425;23;20496;-90
2024/01/08 09:52:00;;;;;;;0.87;0.20;;;;;;;13.41;72.74;98044.13;6129994;23;20151;-90
2024/01/08 09:54:27;;;;;;;0.53;0.27;;;;;;;13.46;72.73;98039.31;6130262;23;20155;-90
2024/01/08 09:56:54;;;;;;;0.60;0.20;;;;;;;13.47;71.95;98047.06;6155367;23;20164;-90
2024/01/08 09:59:20;;;;;;;1.33;0.33;;;;;;;13.46;72.45;98048.06;6155852;23;20245;-90
2024/01/08 10:01:46;;;;;;;0.27;0.20;;;;;;;13.41;73.38;98041.47;6130027;23;20159;-90
2024/01/08 10:04:12;;;;;;;0.37;0.20;;;;;;;13.18;74.05;98050.41;6130459;23;20155;-91
2024/01/08 10:06:40;;;;;;;0.40;0.20;;;;;;;13.12;73.88;98046.47;6130023;23;20522;-89
2024/01/08 10:09:06;;;;;;;0.73;0.30;;;;;;;13.09;74.26;98044.06;6154543;23;20151;-89
2024/01/08 10:11:31;;;;;;;0.50;0.30;;;;;;;13.13;74.77;98049.94;6130107;23;20155;-89
2024/01/08 10:13:57;;;;;;;0.73;0.40;;;;;;;13.13;75.04;98055.19;6154368;23;20155;-90
2024/01/08 10:16:27;;;;;;;0.40;0.20;;;;;;;12.96;75.69;98056.50;6156310;23;20213;-89
2024/01/08 10:18:52;;;;;;;0.30;0.27;;;;;;;12.68;75.83;98063.06;6155650;23;20248;-90
2024/01/08 10:21:18;;;;;;;0.13;0.13;;;;;;;12.76;76.04;98065.94;6155886;23;20580;-90
2024/01/08 10:23:46;;;;;;;0.33;0.20;;;;;;;12.83;76.24;98066.31;6130211;23;20183;-89
2024/01/08 10:26:13;;;;;;;0.37;0.20;;;;;;;12.89;75.70;98066.66;6154484;23;20151;-89
2024/01/08 10:28:39;;;;;;;0.23;0.10;;;;;;;12.64;77.10;98066.91;6155728;23;20234;-89
2024/01/08 10:31:05;;;;;;;1.33;0.20;;;;;;;12.77;77.09;98064.16;6155664;23;20226;-89
2024/01/08 10:33:32;;;;;;;0.20;0.10;;;;;;;12.85;77.14;98054.72;6129674;23;20151;-90
2024/01/08 10:36:05;;;;;;;0.50;0.20;;;;;;;12.99;76.30;98058.06;6130998;23;20155;-90
2024/01/08 10:38:35;;;;;;;1.53;0.50;;;;;;;13.00;76.77;98057.09;6156631;23;20221;-90
2024/01/08 10:41:01;;;;;;;3.63;1.47;;;;;;;13.21;76.30;98060.66;6156727;23;20179;-89
2024/01/08 10:43:28;;;;;;;11.93;6.17;;;;;;;13.17;76.47;98065.34;6156453;23;20186;-89
2024/01/08 10:46:00;;;;;;;2.33;0.70;;;;;;;13.15;76.03;98071.69;6157336;23;20221;-89
2024/01/08 10:48:40;;;;;;;0.60;0.40;;;;;;;13.08;76.29;98068.69;6157365;23;20142;-90
2024/01/08 10:51:07;;;;;;;0.97;0.40;;;;;;;13.16;76.13;98078.59;6156261;23;20165;-89
2024/01/08 10:53:45;;;;;;;1.10;0.40;;;;;;;13.04;75.01;98074.31;6156071;23;20151;-89
2024/01/08 10:56:13;;;;;;;3.70;0.20;;;;;;;13.09;74.62;98077.44;6157213;23;20143;-89
2024/01/08 10:58:49;;;;;;;1.30;0.30;;;;;;;13.06;74.52;98082.91;6157336;23;20152;-89
2024/01/08 11:01:16;;;;;;;1.47;0.50;;;;;;;13.03;75.04;98088.41;6157282;23;20635;-89
2024/01/08 11:03:43;;;;;;;1.10;0.50;;;;;;;12.99;74.13;98085.19;6157187;23;20186;-89
2024/01/08 11:06:10;;;;;;;0.20;0.13;;;;;;;12.80;74.45;98092.84;6131515;23;20155;-89
2024/01/08 11:08:35;;;;;;;0.83;0.40;;;;;;;12.88;74.89;98083.41;6157181;23;20147;-88
2024/01/08 11:11:11;;;;;;;0.90;0.40;;;;;;;13.02;74.25;98084.13;6157535;23;20564;-88
2024/01/08 11:13:39;;;;;;;0.43;0.30;;;;;;;12.79;73.68;98094.63;6131123;23;20594;-89
2024/01/08 11:16:08;;;;;;;0.60;0.47;;;;;;;12.70;73.80;98102.41;6155921;23;20167;-90
2024/01/08 11:18:34;;;;;;;0.87;0.20;;;;;;;12.80;74.75;98098.09;6131115;23;20175;-89
2024/01/08 11:21:01;;;;;;;0.57;0.30;;;;;;;12.77;74.25;98099.19;6131371;23;20166;-88
2024/01/08 11:23:38;;;;;;;0.70;0.40;;;;;;;12.69;75.00;98091.06;6131018;23;20252;-89
2024/01/08 11:26:25;;;;;;;0.83;0.30;;;;;;;12.45;74.69;98107.88;6157076;23;20139;-89
2024/01/08 11:29:05;;;;;;;0.67;0.40;;;;;;;12.59;74.79;98105.03;6156966;23;20169;-89
2024/01/08 11:32:09;;;;;;;1.13;0.40;;;;;;;12.79;75.27;98101.69;6131008;23;20166;-88
2024/01/08 11:34:37;;;;;;;1.13;0.30;;;;;;;12.89;74.65;98110.56;6157381;23;20178;-89